Terminal Aerodrome Forecast
Issued by NWS Houston/Galveston, TX

Current Version | Previous Version | Text Only | Print | Product List | Glossary On
Versions: 1 2 3 4 5 6 7 8 9 10 11 12 13 14 15 16 17 18 19 20 21 22 23 24 25 26 27
000
FTUS44 KHGX 301131
TAFGLS
TAF
KGLS 301131Z 3012/3112 30006KT P6SM FEW060 BKN250
     FM301700 19008KT P6SM VCSH SCT035
     FM302300 24006KT P6SM FEW035 SCT250
     FM310900 25007KT P6SM VCSH FEW040 SCT250=

USA.gov is the U.S. government's official web portal to all federal, state and local government web resources and services.